Rockdale, Texas
Current Conditions -  °F | °C
As of 1:55 AM on Monday 24 Nov 2014 (Local Time) from KT35 Reporting Station
Clear Clear  
Wind Chill: 50°   Ceiling: Unl
Heat Index: 50°   Visibility: 10mi
Dew Point: 40°   Wind: 9mph
Humidity: 69%   Direction: 330°NNW
Pressure: 29.9"   Gusts: NA
Location:  30.66°N, 97°W
Report Text: KT35 240755Z AUTO 33008KT 10SM CLR 10/05 A2990 RMK AO2 T01000045
Loading
Personal Weather Stations






























Interactive Weather Map New forecast layout! Learn more

10-Day Weather Forecast

Advertisements
Track Severe Weather on mobile